KARR/ARR METAR and TAF weather

Enter ICAO airport designator
Station Type Date Time Source
KARR METAR 2019/04/25 21:52 UTC NOAA

KARR 252152Z 15004KT 10SM CLR 20/08 A2967 RMK AO2 SLP047 T02000083


Station Type Date Time Source
KARR Decoded METAR 2019/04/25 21:52 UTC NOAA

CHICAGO AURORA MUNICIPAL, IL, United States (KARR) 41-46N 088-28W 215M
Apr 25, 2019 - 05:52 PM EDT / 2019.04.25 2152 UTC
Wind: from the SSE (150 degrees) at 5 MPH (4 KT):0
Visibility: 10 mile(s):0
Sky conditions: clear
Temperature: 68.0 F (20.0 C)
Dew Point: 46.9 F (8.3 C)
Relative Humidity: 46%
Pressure (altimeter): 29.67 in. Hg (1004 hPa)
ob: KARR 252152Z 15004KT 10SM CLR 20/08 A2967 RMK AO2 SLP047 T02000083
cycle: 22

Station Type Date Time Source
KARR TAF UTC NOAA

Error!

Example: see airport list